Time;durP1;ratioP1;P1;durP2;ratioP2;P2;SDS_P1;SDS_P2;PMS_P1;PMS_P2;Temp;Humidity;BMP_temperature;BMP_pressure;BME280_temperature;BME280_humidity;BME280_pressure;Samples;Min_cycle;Max_cycle;Signal;HPM_P1;HPM_P2
2022/04/20 00:00:16;;;;;;;7.72;4.55;;;;;;;;;;5057136;28;20465;-74
2022/04/20 00:02:41;;;;;;;9.55;4.35;;;;;;;;;;5057171;28;20024;-75
2022/04/20 00:05:07;;;;;;;7.53;4.32;;;;;;;;;;5057719;28;20382;-75
2022/04/20 00:07:33;;;;;;;7.97;4.45;;;;;;;;;;5056422;28;20017;-74
2022/04/20 00:09:59;;;;;;;8.57;4.07;;;;;;;;;;5057032;28;20070;-75
2022/04/20 00:12:24;;;;;;;7.28;3.83;;;;;;;;;;5059732;28;20120;-76
2022/04/20 00:14:50;;;;;;;7.07;4.40;;;;;;;;;;5057897;28;20063;-76
2022/04/20 00:17:15;;;;;;;6.45;3.95;;;;;;;;;;5055564;28;20047;-76
2022/04/20 00:19:40;;;;;;;8.23;4.20;;;;;;;;;;5056950;28;20109;-75
2022/04/20 00:22:06;;;;;;;6.47;3.95;;;;;;;;;;5057397;28;20028;-75
2022/04/20 00:24:31;;;;;;;6.80;3.80;;;;;;;;;;5056870;28;20024;-75
2022/04/20 00:26:56;;;;;;;6.15;3.70;;;;;;;;;;5055431;28;20060;-75
2022/04/20 00:29:22;;;;;;;8.37;4.13;;;;;;;;;;5054993;28;20072;-75
2022/04/20 00:31:47;;;;;;;6.43;3.53;;;;;;;;;;5056887;28;20273;-75
2022/04/20 00:34:12;;;;;;;9.23;4.25;;;;;;;;;;5056343;28;20040;-75
2022/04/20 00:36:38;;;;;;;7.15;4.00;;;;;;;;;;5056218;28;20028;-75
2022/04/20 00:39:03;;;;;;;7.80;3.83;;;;;;;;;;5056118;28;20061;-75
2022/04/20 00:41:29;;;;;;;6.93;3.85;;;;;;;;;;5056464;28;20099;-75
2022/04/20 00:43:54;;;;;;;5.30;3.70;;;;;;;;;;5055782;28;20021;-77
2022/04/20 00:46:21;;;;;;;7.10;3.95;;;;;;;;;;5055925;28;20029;-76
2022/04/20 00:48:49;;;;;;;6.60;3.80;;;;;;;;;;5054326;28;20021;-75
2022/04/20 00:51:14;;;;;;;5.93;3.63;;;;;;;;;;5055039;28;20394;-75
2022/04/20 00:53:39;;;;;;;5.60;3.80;;;;;;;;;;5053859;28;20051;-76
2022/04/20 00:56:05;;;;;;;8.43;4.10;;;;;;;;;;5055509;28;20032;-75
2022/04/20 00:58:30;;;;;;;5.85;3.33;;;;;;;;;;5055383;28;20273;-75
2022/04/20 01:00:56;;;;;;;7.40;4.10;;;;;;;;;;5055804;28;20025;-74
2022/04/20 01:03:21;;;;;;;6.88;3.70;;;;;;;;;;5055778;28;20390;-74
2022/04/20 01:05:46;;;;;;;7.38;3.90;;;;;;;;;;5056381;28;20017;-75
2022/04/20 01:08:11;;;;;;;7.82;3.80;;;;;;;;;;5055721;28;20033;-75
2022/04/20 01:10:36;;;;;;;8.25;3.45;;;;;;;;;;5055782;28;20020;-76
2022/04/20 01:13:02;;;;;;;6.50;3.88;;;;;;;;;;5053789;28;20447;-75
2022/04/20 01:15:28;;;;;;;5.60;3.60;;;;;;;;;;5056330;28;20024;-76
2022/04/20 01:17:53;;;;;;;5.22;3.42;;;;;;;;;;5054718;28;20064;-75
2022/04/20 01:20:18;;;;;;;9.70;4.18;;;;;;;;;;5055764;28;20375;-75
2022/04/20 01:22:44;;;;;;;8.70;3.95;;;;;;;;;;5056247;28;20040;-76
2022/04/20 01:25:09;;;;;;;5.93;3.72;;;;;;;;;;5055410;28;20060;-75
2022/04/20 01:27:35;;;;;;;8.38;3.80;;;;;;;;;;5055773;28;20021;-76
2022/04/20 01:30:01;;;;;;;6.40;3.53;;;;;;;;;;5056126;28;20108;-74
2022/04/20 01:32:26;;;;;;;7.13;4.40;;;;;;;;;;5055738;28;20056;-75
2022/04/20 01:34:52;;;;;;;5.93;3.70;;;;;;;;;;5054901;28;20505;-75
2022/04/20 01:37:17;;;;;;;6.28;3.47;;;;;;;;;;5056065;28;20024;-75
2022/04/20 01:39:43;;;;;;;7.03;3.85;;;;;;;;;;5058663;28;20025;-75
2022/04/20 01:42:08;;;;;;;6.97;3.53;;;;;;;;;;5059723;28;20029;-76
2022/04/20 01:44:33;;;;;;;5.75;3.33;;;;;;;;;;5059303;28;20104;-75
2022/04/20 01:46:59;;;;;;;5.90;3.72;;;;;;;;;;5059477;28;20021;-75
2022/04/20 01:49:24;;;;;;;6.43;4.00;;;;;;;;;;5059270;28;20029;-74
2022/04/20 01:51:50;;;;;;;6.15;4.05;;;;;;;;;;5058014;28;20134;-75
2022/04/20 01:54:16;;;;;;;6.22;3.45;;;;;;;;;;5059477;28;20049;-76
2022/04/20 01:56:41;;;;;;;5.40;3.65;;;;;;;;;;5059706;28;20079;-75
2022/04/20 01:59:07;;;;;;;5.68;3.75;;;;;;;;;;5059121;28;20031;-75
2022/04/20 02:04:16;;;;;;;6.05;3.90;;;;;;;;;;5058970;28;20548;-75
2022/04/20 02:06:41;;;;;;;11.68;4.43;;;;;;;;;;5059276;28;20037;-75
2022/04/20 02:09:07;;;;;;;5.95;3.70;;;;;;;;;;5059108;28;20071;-75
2022/04/20 02:11:32;;;;;;;7.68;3.80;;;;;;;;;;5058989;28;20029;-75
2022/04/20 02:13:59;;;;;;;8.43;4.00;;;;;;;;;;5058413;28;20115;-75
2022/04/20 02:16:24;;;;;;;8.45;4.50;;;;;;;;;;5058299;28;20071;-75
2022/04/20 02:18:50;;;;;;;7.07;4.45;;;;;;;;;;5058076;28;20025;-75
2022/04/20 02:21:15;;;;;;;5.13;3.30;;;;;;;;;;5058681;28;20025;-75
2022/04/20 02:23:40;;;;;;;4.82;3.53;;;;;;;;;;5058258;28;20028;-75
2022/04/20 02:26:05;;;;;;;5.72;3.42;;;;;;;;;;5058312;28;20054;-75
2022/04/20 02:28:31;;;;;;;5.72;3.88;;;;;;;;;;5059180;28;20122;-75
2022/04/20 02:30:56;;;;;;;7.05;3.90;;;;;;;;;;5059301;28;20052;-75
2022/04/20 02:33:21;;;;;;;7.30;3.70;;;;;;;;;;5058507;28;20029;-75
2022/04/20 02:35:46;;;;;;;7.25;4.10;;;;;;;;;;5059057;28;20065;-75
2022/04/20 02:38:14;;;;;;;8.65;3.97;;;;;;;;;;5057264;28;20021;-75
2022/04/20 02:40:41;;;;;;;6.25;3.45;;;;;;;;;;5058870;28;20029;-75
2022/04/20 02:43:06;;;;;;;6.55;3.83;;;;;;;;;;5058732;28;20025;-74
2022/04/20 02:45:31;;;;;;;5.68;3.78;;;;;;;;;;5058505;28;20032;-75
2022/04/20 02:47:56;;;;;;;6.18;4.00;;;;;;;;;;5058660;28;20021;-75
2022/04/20 02:50:22;;;;;;;6.18;3.95;;;;;;;;;;5057609;28;20029;-75
2022/04/20 02:52:47;;;;;;;7.65;3.83;;;;;;;;;;5058690;28;20029;-76
2022/04/20 02:55:12;;;;;;;6.45;3.60;;;;;;;;;;5058864;28;20071;-76
2022/04/20 02:57:37;;;;;;;6.53;3.78;;;;;;;;;;5058141;28;20021;-75
2022/04/20 03:00:04;;;;;;;9.68;3.60;;;;;;;;;;5058293;28;20047;-75
2022/04/20 03:02:31;;;;;;;5.82;3.50;;;;;;;;;;5058520;28;20059;-75
2022/04/20 03:04:56;;;;;;;7.07;3.90;;;;;;;;;;5058218;28;20424;-75
2022/04/20 03:07:22;;;;;;;5.50;3.83;;;;;;;;;;5057760;28;20103;-75
2022/04/20 03:09:47;;;;;;;6.72;3.80;;;;;;;;;;5057943;28;20394;-75
2022/04/20 03:12:12;;;;;;;5.97;3.78;;;;;;;;;;5057902;28;20200;-76
2022/04/20 03:14:38;;;;;;;5.65;3.45;;;;;;;;;;5058013;28;20028;-75
2022/04/20 03:17:03;;;;;;;5.40;3.63;;;;;;;;;;5057742;28;20028;-74
2022/04/20 03:19:28;;;;;;;6.38;3.70;;;;;;;;;;5056517;28;20021;-75
2022/04/20 03:21:54;;;;;;;7.28;3.80;;;;;;;;;;5057404;28;20025;-75
2022/04/20 03:24:19;;;;;;;6.38;4.10;;;;;;;;;;5056271;28;20056;-76
2022/04/20 03:26:45;;;;;;;9.18;4.18;;;;;;;;;;5057672;28;20021;-75
2022/04/20 03:29:10;;;;;;;13.38;6.47;;;;;;;;;;5057605;28;20056;-75
2022/04/20 03:31:37;;;;;;;16.83;7.20;;;;;;;;;;5057238;28;20017;-76
2022/04/20 03:34:03;;;;;;;16.52;7.85;;;;;;;;;;5056846;28;20020;-75
2022/04/20 03:36:30;;;;;;;23.23;10.68;;;;;;;;;;5057899;28;20028;-74
2022/04/20 03:38:55;;;;;;;20.40;9.68;;;;;;;;;;5057690;28;20572;-75
2022/04/20 03:41:22;;;;;;;16.38;7.85;;;;;;;;;;5057786;28;20032;-74
2022/04/20 03:43:47;;;;;;;12.05;5.72;;;;;;;;;;5057679;28;20047;-75
2022/04/20 03:46:12;;;;;;;8.75;5.00;;;;;;;;;;5057964;28;20561;-75
2022/04/20 03:48:38;;;;;;;8.52;4.93;;;;;;;;;;5056186;28;20362;-74
2022/04/20 03:51:03;;;;;;;8.27;3.85;;;;;;;;;;5055899;28;20024;-75
2022/04/20 03:53:28;;;;;;;7.68;4.47;;;;;;;;;;5057496;28;20027;-75
2022/04/20 03:55:53;;;;;;;7.75;4.20;;;;;;;;;;5056906;28;20056;-75
2022/04/20 03:58:19;;;;;;;10.02;4.25;;;;;;;;;;5054928;28;20116;-75
2022/04/20 04:00:44;;;;;;;5.82;3.85;;;;;;;;;;5056394;28;20025;-76
2022/04/20 04:03:09;;;;;;;7.45;4.10;;;;;;;;;;5057369;28;20463;-75
2022/04/20 04:05:34;;;;;;;6.75;3.85;;;;;;;;;;5055614;28;20033;-75
2022/04/20 04:07:59;;;;;;;5.25;3.53;;;;;;;;;;5056838;28;20394;-75
2022/04/20 04:10:25;;;;;;;9.40;4.47;;;;;;;;;;5056544;28;20021;-75
2022/04/20 04:12:50;;;;;;;9.13;4.30;;;;;;;;;;5055324;28;20025;-75
2022/04/20 04:15:15;;;;;;;10.23;4.70;;;;;;;;;;5057024;28;20031;-75
2022/04/20 04:17:40;;;;;;;8.25;4.68;;;;;;;;;;5056361;28;20108;-74
2022/04/20 04:20:07;;;;;;;8.63;4.50;;;;;;;;;;5056943;28;20067;-75
2022/04/20 04:22:34;;;;;;;8.63;3.90;;;;;;;;;;5056731;28;20029;-75
2022/04/20 04:24:59;;;;;;;6.32;3.70;;;;;;;;;;5056560;28;20450;-75
2022/04/20 04:27:24;;;;;;;8.38;4.35;;;;;;;;;;5056483;28;20048;-75
2022/04/20 04:29:50;;;;;;;7.32;4.07;;;;;;;;;;5054635;28;20029;-75
2022/04/20 04:32:15;;;;;;;8.15;4.25;;;;;;;;;;5054331;28;20116;-76
2022/04/20 04:34:40;;;;;;;6.65;4.15;;;;;;;;;;5055513;28;20021;-75
2022/04/20 04:37:06;;;;;;;6.90;4.25;;;;;;;;;;5053827;28;20405;-74
2022/04/20 04:39:32;;;;;;;7.63;4.25;;;;;;;;;;5054581;28;20024;-74
2022/04/20 04:41:59;;;;;;;5.68;4.03;;;;;;;;;;5054625;28;20397;-75
2022/04/20 04:44:24;;;;;;;8.35;3.83;;;;;;;;;;5055762;28;20031;-76
2022/04/20 04:49:34;;;;;;;6.25;3.83;;;;;;;;;;5056217;28;20063;-75
2022/04/20 04:51:59;;;;;;;6.75;3.88;;;;;;;;;;5055932;28;20056;-75
2022/04/20 04:54:25;;;;;;;8.65;4.32;;;;;;;;;;5055765;28;20021;-75
2022/04/20 04:56:50;;;;;;;6.43;4.13;;;;;;;;;;5056047;28;20020;-75
2022/04/20 04:59:16;;;;;;;6.82;4.20;;;;;;;;;;5055962;28;20053;-75
2022/04/20 05:01:41;;;;;;;6.30;3.95;;;;;;;;;;5055795;28;20074;-75
2022/04/20 05:04:07;;;;;;;8.52;4.45;;;;;;;;;;5055832;28;20058;-76
2022/04/20 05:06:32;;;;;;;8.52;4.03;;;;;;;;;;5056684;28;20029;-76
2022/04/20 05:08:58;;;;;;;6.40;4.40;;;;;;;;;;5056226;28;20017;-76
2022/04/20 05:11:23;;;;;;;6.30;4.00;;;;;;;;;;5057147;28;20056;-76
2022/04/20 05:13:48;;;;;;;8.18;4.50;;;;;;;;;;5056905;28;20024;-76
2022/04/20 05:16:13;;;;;;;6.93;4.25;;;;;;;;;;5060271;28;20029;-74
2022/04/20 05:18:38;;;;;;;7.50;4.45;;;;;;;;;;5059967;28;20029;-75
2022/04/20 05:21:04;;;;;;;7.05;4.35;;;;;;;;;;5060824;28;20438;-75
2022/04/20 05:23:29;;;;;;;8.52;3.97;;;;;;;;;;5060913;28;20029;-73
2022/04/20 05:25:54;;;;;;;5.95;4.18;;;;;;;;;;5061247;28;20462;-76
2022/04/20 05:28:20;;;;;;;6.57;4.25;;;;;;;;;;5060768;28;20021;-75
2022/04/20 05:30:45;;;;;;;8.35;4.07;;;;;;;;;;5060425;28;20028;-75
2022/04/20 05:33:12;;;;;;;8.30;4.25;;;;;;;;;;5059537;28;20020;-76
2022/04/20 05:35:37;;;;;;;8.35;4.30;;;;;;;;;;5060262;28;20029;-75
2022/04/20 05:43:30;;;;;;;8.10;4.63;;;;;;;;;;5059247;28;20032;-76
2022/04/20 05:45:55;;;;;;;12.57;4.70;;;;;;;;;;5059377;28;20028;-75
2022/04/20 05:48:20;;;;;;;6.95;4.05;;;;;;;;;;5057991;28;20497;-75
2022/04/20 05:50:46;;;;;;;9.13;4.80;;;;;;;;;;5057709;28;20060;-73
2022/04/20 05:53:12;;;;;;;7.43;4.50;;;;;;;;;;5058674;28;20024;-75
2022/04/20 05:55:37;;;;;;;11.32;4.30;;;;;;;;;;5059598;28;20031;-76
2022/04/20 05:58:02;;;;;;;8.35;4.68;;;;;;;;;;5057667;28;20048;-76
2022/04/20 06:00:28;;;;;;;6.15;4.25;;;;;;;;;;5059310;28;20029;-75
2022/04/20 06:02:54;;;;;;;8.48;5.05;;;;;;;;;;5059790;28;20044;-76
2022/04/20 06:05:20;;;;;;;7.82;4.47;;;;;;;;;;5058437;28;20066;-75
2022/04/20 06:07:46;;;;;;;7.07;4.28;;;;;;;;;;5056901;28;20397;-75
2022/04/20 06:10:11;;;;;;;6.68;4.45;;;;;;;;;;5058427;28;20028;-76
2022/04/20 06:12:36;;;;;;;6.97;4.50;;;;;;;;;;5058891;28;20032;-74
2022/04/20 06:15:02;;;;;;;7.13;4.30;;;;;;;;;;5059239;28;20028;-77
2022/04/20 06:17:27;;;;;;;7.40;4.90;;;;;;;;;;5059316;28;20280;-75
2022/04/20 06:19:52;;;;;;;8.00;4.97;;;;;;;;;;5059001;28;20440;-75
2022/04/20 06:22:18;;;;;;;8.15;4.90;;;;;;;;;;5059196;28;20039;-75
2022/04/20 06:24:43;;;;;;;10.27;4.60;;;;;;;;;;5059469;28;20029;-76
2022/04/20 06:27:08;;;;;;;6.63;4.37;;;;;;;;;;5058046;28;20258;-76
2022/04/20 06:29:34;;;;;;;11.38;5.05;;;;;;;;;;5058933;28;20265;-76
2022/04/20 06:32:01;;;;;;;8.57;4.50;;;;;;;;;;5058063;28;20398;-74
2022/04/20 06:34:26;;;;;;;8.82;5.15;;;;;;;;;;5056829;28;20403;-75
2022/04/20 06:36:51;;;;;;;12.45;5.10;;;;;;;;;;5056856;28;20031;-75
2022/04/20 06:39:16;;;;;;;9.13;4.93;;;;;;;;;;5057555;28;20513;-75
2022/04/20 06:41:42;;;;;;;10.02;4.90;;;;;;;;;;5058518;28;20262;-76
2022/04/20 06:44:07;;;;;;;10.98;4.80;;;;;;;;;;5056807;28;20021;-75
2022/04/20 06:46:33;;;;;;;8.80;5.07;;;;;;;;;;5058823;28;20111;-75
2022/04/20 06:48:58;;;;;;;13.15;4.90;;;;;;;;;;5058320;28;20028;-76
2022/04/20 06:51:24;;;;;;;13.88;4.88;;;;;;;;;;5057618;28;20025;-76
2022/04/20 06:59:16;;;;;;;10.75;5.40;;;;;;;;;;5057303;28;20036;-75
2022/04/20 07:01:42;;;;;;;7.57;4.97;;;;;;;;;;5056938;28;20025;-75
2022/04/20 07:04:07;;;;;;;8.05;4.97;;;;;;;;;;5057792;28;20036;-74
2022/04/20 07:06:32;;;;;;;8.87;4.67;;;;;;;;;;5057156;28;20390;-75
2022/04/20 07:08:58;;;;;;;8.30;5.53;;;;;;;;;;5057252;28;20708;-74
2022/04/20 07:11:23;;;;;;;8.10;4.53;;;;;;;;;;5057268;28;20180;-74
2022/04/20 07:13:50;;;;;;;9.93;5.43;;;;;;;;;;5057204;28;20398;-77
2022/04/20 07:16:15;;;;;;;8.70;5.15;;;;;;;;;;5057663;28;20021;-75
2022/04/20 07:18:41;;;;;;;8.13;4.93;;;;;;;;;;5057736;28;20032;-76
2022/04/20 07:21:06;;;;;;;6.97;4.75;;;;;;;;;;5057900;28;20057;-74
2022/04/20 07:23:31;;;;;;;9.83;4.93;;;;;;;;;;5057423;28;20535;-75
2022/04/20 07:25:57;;;;;;;9.98;5.13;;;;;;;;;;5057611;28;20369;-75
2022/04/20 07:28:22;;;;;;;9.65;4.85;;;;;;;;;;5055946;28;20027;-75
2022/04/20 07:30:47;;;;;;;16.40;5.82;;;;;;;;;;5057613;28;20025;-75
2022/04/20 07:33:16;;;;;;;12.48;5.28;;;;;;;;;;5057222;28;20017;-75
2022/04/20 07:35:45;;;;;;;10.43;5.68;;;;;;;;;;5057387;28;20025;-75
2022/04/20 07:38:11;;;;;;;6.80;4.60;;;;;;;;;;5057773;28;20021;-76
2022/04/20 07:40:37;;;;;;;8.60;5.70;;;;;;;;;;5058253;28;20539;-74
2022/04/20 07:43:02;;;;;;;11.70;5.97;;;;;;;;;;5057829;28;20040;-75
2022/04/20 07:45:27;;;;;;;8.02;5.25;;;;;;;;;;5057977;28;20549;-75
2022/04/20 07:47:54;;;;;;;7.85;5.43;;;;;;;;;;5057709;28;20021;-74
2022/04/20 07:50:24;;;;;;;13.20;5.68;;;;;;;;;;5058309;28;20025;-74
2022/04/20 07:52:54;;;;;;;8.18;5.25;;;;;;;;;;5057225;28;20028;-74
2022/04/20 07:55:25;;;;;;;9.02;5.65;;;;;;;;;;5057391;28;20024;-75
2022/04/20 07:57:52;;;;;;;12.50;6.20;;;;;;;;;;5057528;28;20048;-75
2022/04/20 08:00:18;;;;;;;9.95;5.05;;;;;;;;;;5056678;28;20495;-74
2022/04/20 08:02:44;;;;;;;7.45;5.28;;;;;;;;;;5057133;28;20099;-74
2022/04/20 08:05:11;;;;;;;9.63;5.70;;;;;;;;;;5057395;28;20024;-76
2022/04/20 08:07:36;;;;;;;8.55;5.60;;;;;;;;;;5059450;28;20166;-75
2022/04/20 08:10:06;;;;;;;10.30;5.75;;;;;;;;;;5060452;28;20024;-76
2022/04/20 08:12:38;;;;;;;8.73;5.97;;;;;;;;;;5060550;28;20025;-76
2022/04/20 08:15:04;;;;;;;9.30;5.82;;;;;;;;;;5060320;28;20029;-75
2022/04/20 08:17:30;;;;;;;8.90;5.18;;;;;;;;;;5060371;28;20494;-75
2022/04/20 08:19:56;;;;;;;9.60;5.63;;;;;;;;;;5059596;28;20055;-75
2022/04/20 08:22:22;;;;;;;8.65;5.63;;;;;;;;;;5058730;28;20107;-76
2022/04/20 08:24:47;;;;;;;10.15;5.90;;;;;;;;;;5059031;28;20036;-77
2022/04/20 08:27:14;;;;;;;7.95;5.38;;;;;;;;;;5059756;28;20025;-76
2022/04/20 08:29:39;;;;;;;10.15;5.75;;;;;;;;;;5059548;28;20115;-75
2022/04/20 08:32:05;;;;;;;8.15;5.70;;;;;;;;;;5059179;28;20025;-75
2022/04/20 08:34:30;;;;;;;10.25;6.20;;;;;;;;;;5058420;28;20076;-74
2022/04/20 08:36:55;;;;;;;8.60;6.00;;;;;;;;;;5056651;28;20032;-75
2022/04/20 08:39:21;;;;;;;13.27;6.70;;;;;;;;;;5056632;28;20304;-75
2022/04/20 08:41:49;;;;;;;9.90;5.57;;;;;;;;;;5057191;28;20265;-76
2022/04/20 08:44:19;;;;;;;9.80;6.45;;;;;;;;;;5056552;28;20261;-76
2022/04/20 08:46:45;;;;;;;9.70;6.00;;;;;;;;;;5056990;28;20035;-76
2022/04/20 08:49:10;;;;;;;12.68;6.10;;;;;;;;;;5055283;28;20056;-74
2022/04/20 08:54:21;;;;;;;9.13;6.07;;;;;;;;;;5055760;28;20036;-76
2022/04/20 08:59:31;;;;;;;15.88;5.97;;;;;;;;;;5056419;28;20161;-77
2022/04/20 09:01:59;;;;;;;10.43;5.80;;;;;;;;;;5056108;28;20029;-75
2022/04/20 09:04:25;;;;;;;9.75;6.32;;;;;;;;;;5056399;28;20084;-76
2022/04/20 09:06:50;;;;;;;8.93;6.20;;;;;;;;;;5056877;28;20517;-75
2022/04/20 09:09:18;;;;;;;12.68;6.18;;;;;;;;;;5055156;28;20767;-75
2022/04/20 09:11:45;;;;;;;9.95;5.88;;;;;;;;;;5056814;28;20075;-74
2022/04/20 09:14:13;;;;;;;8.57;5.93;;;;;;;;;;5056906;28;20048;-76
2022/04/20 09:16:38;;;;;;;9.40;6.13;;;;;;;;;;5055038;28;20025;-75
2022/04/20 09:19:04;;;;;;;8.63;5.88;;;;;;;;;;5056402;28;20095;-75
2022/04/20 09:21:31;;;;;;;11.98;6.20;;;;;;;;;;5056674;28;20028;-75
2022/04/20 09:24:07;;;;;;;12.35;6.47;;;;;;;;;;5055854;28;20028;-76
2022/04/20 09:26:32;;;;;;;8.52;6.00;;;;;;;;;;5055253;28;20029;-75
2022/04/20 09:29:08;;;;;;;12.50;6.50;;;;;;;;;;5055935;28;20032;-75
2022/04/20 09:31:44;;;;;;;16.70;6.57;;;;;;;;;;5055671;28;20036;-75
2022/04/20 09:34:30;;;;;;;9.20;6.10;;;;;;;;;;5054836;28;20032;-76
2022/04/20 09:36:55;;;;;;;8.77;5.72;;;;;;;;;;5056066;28;20526;-75
2022/04/20 09:39:21;;;;;;;8.75;5.78;;;;;;;;;;5056714;28;20060;-76
2022/04/20 09:42:00;;;;;;;10.57;5.88;;;;;;;;;;5055954;28;20076;-74
2022/04/20 09:44:27;;;;;;;17.38;6.00;;;;;;;;;;5057196;28;20022;-75
2022/04/20 09:49:54;;;;;;;10.95;5.63;;;;;;;;;;5056340;28;20024;-74
2022/04/20 09:52:19;;;;;;;7.93;5.40;;;;;;;;;;5054544;28;20443;-76
2022/04/20 09:54:56;;;;;;;8.80;5.47;;;;;;;;;;5054739;28;20051;-75
2022/04/20 09:57:22;;;;;;;11.60;5.70;;;;;;;;;;5053949;28;20032;-76
2022/04/20 10:00:16;;;;;;;9.45;5.35;;;;;;;;;;5056024;28;20021;-74
2022/04/20 10:02:52;;;;;;;10.00;5.13;;;;;;;;;;5054807;28;20053;-75
2022/04/20 10:05:21;;;;;;;9.27;5.38;;;;;;;;;;5058872;28;20405;-75
2022/04/20 10:07:46;;;;;;;13.05;5.45;;;;;;;;;;5059748;28;20025;-75
2022/04/20 10:10:12;;;;;;;8.60;4.25;;;;;;;;;;5059495;28;20036;-75
2022/04/20 10:12:40;;;;;;;7.80;4.70;;;;;;;;;;5058679;28;20021;-75
2022/04/20 10:17:54;;;;;;;8.82;4.75;;;;;;;;;;5059477;28;20398;-76
2022/04/20 10:20:20;;;;;;;8.35;4.82;;;;;;;;;;5059646;28;20016;-76
2022/04/20 10:22:46;;;;;;;6.50;4.35;;;;;;;;;;5059047;28;20493;-75
2022/04/20 10:25:13;;;;;;;10.73;5.50;;;;;;;;;;5058814;28;20029;-75
2022/04/20 10:28:03;;;;;;;9.40;5.75;;;;;;;;;;5059177;28;20075;-76
2022/04/20 10:30:58;;;;;;;7.45;4.45;;;;;;;;;;5059183;28;20453;-75
2022/04/20 10:33:24;;;;;;;9.48;3.97;;;;;;;;;;5059551;28;20044;-74
2022/04/20 10:36:00;;;;;;;7.30;4.80;;;;;;;;;;5060629;28;20099;-76
2022/04/20 10:38:29;;;;;;;6.40;3.92;;;;;;;;;;5060480;28;20394;-76
2022/04/20 10:41:06;;;;;;;7.25;4.95;;;;;;;;;;5059183;28;20033;-75
2022/04/20 10:43:39;;;;;;;7.05;4.22;;;;;;;;;;5059385;28;20032;-76
2022/04/20 10:46:08;;;;;;;9.30;4.65;;;;;;;;;;5059039;28;20024;-74
2022/04/20 10:48:58;;;;;;;6.30;3.90;;;;;;;;;;5057916;28;20021;-75
2022/04/20 10:51:30;;;;;;;9.05;4.50;;;;;;;;;;5058635;28;20024;-76
2022/04/20 10:54:22;;;;;;;6.20;4.40;;;;;;;;;;5060269;28;20033;-75
2022/04/20 10:56:48;;;;;;;7.18;4.10;;;;;;;;;;5059127;28;20020;-76
2022/04/20 10:59:14;;;;;;;6.90;4.60;;;;;;;;;;5058904;28;20021;-75
2022/04/20 11:01:58;;;;;;;9.23;5.20;;;;;;;;;;5059290;28;20032;-75
2022/04/20 11:04:41;;;;;;;5.68;3.53;;;;;;;;;;5059127;28;20043;-75
2022/04/20 11:07:07;;;;;;;7.07;4.55;;;;;;;;;;5057388;28;20025;-75
2022/04/20 11:09:45;;;;;;;8.45;4.63;;;;;;;;;;5056843;28;20036;-75
2022/04/20 11:21:07;;;;;;;6.55;4.65;;;;;;;;;;5037225;28;20446;-74
2022/04/20 11:23:55;;;;;;;8.10;4.35;;;;;;;;;;5056747;28;20490;-75
2022/04/20 11:26:39;;;;;;;8.98;4.60;;;;;;;;;;5058192;28;20025;-74
2022/04/20 11:29:18;;;;;;;10.00;5.40;;;;;;;;;;5058062;28;20631;-77
2022/04/20 11:31:48;;;;;;;7.70;5.43;;;;;;;;;;5056285;28;20032;-75
2022/04/20 11:34:17;;;;;;;8.65;5.05;;;;;;;;;;5057335;28;20094;-76
2022/04/20 11:36:44;;;;;;;9.27;5.38;;;;;;;;;;5057057;28;20021;-76
2022/04/20 11:39:21;;;;;;;9.45;5.55;;;;;;;;;;5056937;28;20115;-76
2022/04/20 11:41:52;;;;;;;8.48;5.13;;;;;;;;;;5056892;28;20021;-76
2022/04/20 11:44:27;;;;;;;11.10;5.93;;;;;;;;;;5058135;28;20433;-75
2022/04/20 11:46:58;;;;;;;7.35;4.70;;;;;;;;;;5057510;28;20025;-75
2022/04/20 11:49:50;;;;;;;10.40;5.97;;;;;;;;;;5058180;28;20493;-75
2022/04/20 11:52:17;;;;;;;9.68;5.03;;;;;;;;;;5056508;28;20043;-75
2022/04/20 11:54:45;;;;;;;8.65;5.47;;;;;;;;;;5055960;28;20573;-75
2022/04/20 11:57:11;;;;;;;8.00;5.32;;;;;;;;;;5057049;28;20029;-75
2022/04/20 11:59:45;;;;;;;10.68;5.25;;;;;;;;;;5057163;28;20028;-76
2022/04/20 12:02:13;;;;;;;8.10;5.53;;;;;;;;;;5056975;28;20529;-76
2022/04/20 12:04:39;;;;;;;8.00;5.28;;;;;;;;;;5057093;28;20025;-76
2022/04/20 12:07:05;;;;;;;9.27;5.45;;;;;;;;;;5057040;28;20079;-75
2022/04/20 12:09:32;;;;;;;8.20;4.95;;;;;;;;;;5056900;28;20049;-77
2022/04/20 12:12:00;;;;;;;8.27;5.88;;;;;;;;;;5057392;28;20029;-76
2022/04/20 12:14:32;;;;;;;6.85;4.75;;;;;;;;;;5057059;28;20025;-75
2022/04/20 12:17:00;;;;;;;8.52;5.30;;;;;;;;;;5056645;28;20036;-75
2022/04/20 12:19:27;;;;;;;8.65;5.32;;;;;;;;;;5056886;28;20032;-75
2022/04/20 12:21:54;;;;;;;12.60;4.90;;;;;;;;;;5057383;28;20044;-76
2022/04/20 12:24:21;;;;;;;9.60;4.97;;;;;;;;;;5057111;28;20112;-75
2022/04/20 12:26:49;;;;;;;8.45;5.53;;;;;;;;;;5055684;28;20025;-76
2022/04/20 12:29:16;;;;;;;8.70;5.72;;;;;;;;;;5056817;28;20028;-76
2022/04/20 12:31:43;;;;;;;6.97;5.07;;;;;;;;;;5056900;28;20056;-76
2022/04/20 12:34:13;;;;;;;11.95;5.47;;;;;;;;;;5056374;28;20060;-75
2022/04/20 12:36:58;;;;;;;9.02;5.43;;;;;;;;;;5055561;28;20028;-74
2022/04/20 12:39:24;;;;;;;8.80;5.35;;;;;;;;;;5057183;28;20104;-76
2022/04/20 12:41:53;;;;;;;6.82;5.32;;;;;;;;;;5055721;28;20048;-76
2022/04/20 12:44:52;;;;;;;7.63;5.07;;;;;;;;;;5056597;28;20025;-76
2022/04/20 12:47:18;;;;;;;6.90;4.47;;;;;;;;;;5056061;28;20025;-76
2022/04/20 12:50:10;;;;;;;7.75;4.97;;;;;;;;;;5056623;28;20031;-75
2022/04/20 12:52:36;;;;;;;7.55;5.47;;;;;;;;;;5056137;28;20104;-75
2022/04/20 12:55:07;;;;;;;10.38;5.47;;;;;;;;;;5054830;28;20067;-75
2022/04/20 13:03:16;;;;;;;9.32;5.93;;;;;;;;;;5056869;28;20090;-75
2022/04/20 13:05:43;;;;;;;10.82;6.00;;;;;;;;;;5056741;28;20043;-75
2022/04/20 13:08:10;;;;;;;11.57;5.72;;;;;;;;;;5057338;28;20091;-75
2022/04/20 13:10:37;;;;;;;10.95;6.35;;;;;;;;;;5056249;28;20390;-76
2022/04/20 13:13:04;;;;;;;12.32;6.65;;;;;;;;;;5056194;28;20028;-75
2022/04/20 13:15:29;;;;;;;7.72;4.38;;;;;;;;;;5056458;28;20112;-75
2022/04/20 13:17:55;;;;;;;9.25;5.32;;;;;;;;;;5056432;28;20462;-75
2022/04/20 13:20:21;;;;;;;10.10;5.75;;;;;;;;;;5056064;28;20417;-75
2022/04/20 13:22:46;;;;;;;10.43;6.50;;;;;;;;;;5056367;28;20056;-74
2022/04/20 13:27:56;;;;;;;9.38;5.88;;;;;;;;;;5056794;28;20402;-75
2022/04/20 13:30:35;;;;;;;11.82;6.40;;;;;;;;;;5056258;28;20025;-75
2022/04/20 13:33:02;;;;;;;9.20;5.50;;;;;;;;;;5056613;28;20032;-74
2022/04/20 13:35:27;;;;;;;9.43;5.72;;;;;;;;;;5059424;28;20036;-75
2022/04/20 13:37:52;;;;;;;7.75;5.28;;;;;;;;;;5059720;28;20029;-75
2022/04/20 13:40:18;;;;;;;8.73;5.60;;;;;;;;;;5059086;28;20033;-75
2022/04/20 13:42:43;;;;;;;7.78;5.60;;;;;;;;;;5059458;28;20269;-76
2022/04/20 13:45:09;;;;;;;7.40;5.45;;;;;;;;;;5059556;28;20078;-75
2022/04/20 13:47:35;;;;;;;8.27;5.57;;;;;;;;;;5058601;28;20032;-75
2022/04/20 13:50:00;;;;;;;9.23;5.60;;;;;;;;;;5059480;28;20032;-76
2022/04/20 13:52:26;;;;;;;9.57;5.70;;;;;;;;;;5060696;28;20053;-77
2022/04/20 13:54:55;;;;;;;7.32;5.50;;;;;;;;;;5058488;28;20029;-76
2022/04/20 13:57:22;;;;;;;10.57;5.97;;;;;;;;;;5058449;28;20051;-75
2022/04/20 13:59:48;;;;;;;9.32;5.75;;;;;;;;;;5059885;28;20027;-79
2022/04/20 14:02:13;;;;;;;10.10;5.82;;;;;;;;;;5060171;28;20093;-74
2022/04/20 14:04:39;;;;;;;8.23;5.22;;;;;;;;;;5059947;28;20017;-75
2022/04/20 14:07:04;;;;;;;7.45;5.30;;;;;;;;;;5060434;28;20025;-75
2022/04/20 14:09:30;;;;;;;7.57;4.97;;;;;;;;;;5060029;28;20021;-76
2022/04/20 14:11:55;;;;;;;9.20;5.50;;;;;;;;;;5060169;28;20482;-75
2022/04/20 14:14:21;;;;;;;7.20;5.22;;;;;;;;;;5060577;28;20483;-75
2022/04/20 14:16:46;;;;;;;7.28;4.80;;;;;;;;;;5059765;28;20033;-75
2022/04/20 14:19:12;;;;;;;7.95;4.63;;;;;;;;;;5059309;28;20100;-75
2022/04/20 14:21:39;;;;;;;7.03;4.87;;;;;;;;;;5059685;28;20059;-76
2022/04/20 14:24:04;;;;;;;6.78;5.05;;;;;;;;;;5059631;28;20605;-76
2022/04/20 14:32:10;;;;;;;7.30;4.70;;;;;;;;;;5059905;28;20047;-75
2022/04/20 14:34:36;;;;;;;8.45;4.90;;;;;;;;;;5059156;28;20029;-76
2022/04/20 14:37:03;;;;;;;9.38;5.00;;;;;;;;;;5058788;28;20021;-75
2022/04/20 14:39:28;;;;;;;6.10;4.57;;;;;;;;;;5058896;28;20425;-75
2022/04/20 14:41:55;;;;;;;7.07;4.10;;;;;;;;;;5059549;28;20033;-76
2022/04/20 14:44:21;;;;;;;6.25;4.35;;;;;;;;;;5059403;28;20032;-74
2022/04/20 14:46:46;;;;;;;8.75;4.22;;;;;;;;;;5058763;28;20017;-75
2022/04/20 14:49:12;;;;;;;6.03;4.35;;;;;;;;;;5057214;28;20059;-76
2022/04/20 14:51:38;;;;;;;6.40;3.63;;;;;;;;;;5059533;28;20020;-76
2022/04/20 14:54:04;;;;;;;4.60;3.35;;;;;;;;;;5058984;28;20029;-74
2022/04/20 14:56:29;;;;;;;5.68;3.60;;;;;;;;;;5057567;28;20031;-75
2022/04/20 14:58:55;;;;;;;6.38;4.75;;;;;;;;;;5058054;28;20075;-75
2022/04/20 15:01:20;;;;;;;6.95;4.05;;;;;;;;;;5058510;28;20492;-74
2022/04/20 15:03:45;;;;;;;4.53;3.47;;;;;;;;;;5058672;28;20082;-75
2022/04/20 15:06:10;;;;;;;3.92;3.00;;;;;;;;;;5057492;28;20021;-75
2022/04/20 15:08:36;;;;;;;4.88;2.63;;;;;;;;;;5058471;28;20021;-75
2022/04/20 15:11:01;;;;;;;3.33;2.67;;;;;;;;;;5058336;28;20032;-75
2022/04/20 15:13:26;;;;;;;3.30;2.53;;;;;;;;;;5057659;28;20025;-76
2022/04/20 15:15:52;;;;;;;10.05;3.95;;;;;;;;;;5058501;28;20104;-75
2022/04/20 15:18:17;;;;;;;4.78;2.88;;;;;;;;;;5057441;28;20017;-75
2022/04/20 15:20:43;;;;;;;5.78;2.97;;;;;;;;;;5058677;28;20482;-76
2022/04/20 15:23:08;;;;;;;5.30;2.70;;;;;;;;;;5058708;28;20033;-75
2022/04/20 15:25:34;;;;;;;4.45;2.33;;;;;;;;;;5059076;28;20055;-76
2022/04/20 15:28:02;;;;;;;6.57;3.65;;;;;;;;;;5058790;28;20036;-76
2022/04/20 15:30:37;;;;;;;5.10;3.05;;;;;;;;;;5057611;28;20024;-74